Time;durP1;ratioP1;P1;durP2;ratioP2;P2;SDS_P1;SDS_P2;PMS_P1;PMS_P2;Temp;Humidity;BMP_temperature;BMP_pressure;BME280_temperature;BME280_humidity;BME280_pressure;Samples;Min_cycle;Max_cycle;Signal;HPM_P1;HPM_P2
2024/01/17 00:01:58;;;;;;;92.25;53.67;;;14.00;55.10;;;;;;4894507;28;94494;-72
2024/01/17 00:04:25;;;;;;;94.97;53.88;;;14.00;55.10;;;;;;4893359;28;94955;-72
2024/01/17 00:06:51;;;;;;;95.90;54.47;;;14.00;55.00;;;;;;4896810;28;95417;-72
2024/01/17 00:09:18;;;;;;;94.20;53.50;;;14.00;55.10;;;;;;4896769;28;96305;-75
2024/01/17 00:11:44;;;;;;;93.20;53.67;;;14.00;55.10;;;;;;4893603;28;95610;-72
2024/01/17 00:14:10;;;;;;;94.18;54.10;;;14.00;55.00;;;;;;4888883;28;94898;-72
2024/01/17 00:16:37;;;;;;;92.18;53.42;;;13.90;55.00;;;;;;4898949;28;95940;-72
2024/01/17 00:19:03;;;;;;;93.60;53.70;;;13.90;55.00;;;;;;4893224;28;95222;-74
2024/01/17 00:21:28;;;;;;;94.22;54.13;;;13.90;55.00;;;;;;4888402;28;96425;-72
2024/01/17 00:23:54;;;;;;;94.15;53.53;;;13.90;55.00;;;;;;4896323;28;95347;-72
2024/01/17 00:26:20;;;;;;;92.30;53.72;;;13.80;54.90;;;;;;4894810;28;94641;-73
2024/01/17 00:28:46;;;;;;;92.47;53.50;;;13.80;54.90;;;;;;4892455;28;98552;-75
2024/01/17 00:31:12;;;;;;;91.90;53.30;;;13.80;55.00;;;;;;4898715;28;95211;-72
2024/01/17 00:33:38;;;;;;;92.15;53.83;;;13.80;55.00;;;;;;4889767;28;95938;-76
2024/01/17 00:36:04;;;;;;;92.75;53.63;;;13.80;55.00;;;;;;4892543;28;94873;-71
2024/01/17 00:38:31;;;;;;;95.05;53.65;;;13.70;54.90;;;;;;4890673;28;95857;-75
2024/01/17 00:40:57;;;;;;;93.40;53.67;;;13.70;55.00;;;;;;4892371;28;96972;-74
2024/01/17 00:43:22;;;;;;;94.10;54.38;;;13.70;55.00;;;;;;4890003;28;94852;-72
2024/01/17 00:45:48;;;;;;;93.10;53.50;;;13.70;55.10;;;;;;4895249;28;95579;-74
2024/01/17 00:48:14;;;;;;;93.97;53.92;;;13.70;55.10;;;;;;4888452;28;95023;-73
2024/01/17 00:50:40;;;;;;;93.68;53.45;;;13.60;55.10;;;;;;4895713;28;97013;-72
2024/01/17 00:53:06;;;;;;;92.65;53.65;;;13.60;55.10;;;;;;4894226;28;95052;-75
2024/01/17 00:55:32;;;;;;;94.05;53.65;;;13.60;55.20;;;;;;4895248;28;95118;-74
2024/01/17 00:57:58;;;;;;;93.13;53.65;;;13.60;55.20;;;;;;4896636;28;95658;-73
2024/01/17 01:00:24;;;;;;;92.93;53.33;;;13.60;55.80;;;;;;4887208;28;95875;-72
2024/01/17 01:02:52;;;;;;;92.88;53.35;;;13.60;55.20;;;;;;4889861;28;96645;-72
2024/01/17 01:05:18;;;;;;;93.05;53.33;;;13.50;55.20;;;;;;4892300;28;94556;-78
2024/01/17 01:07:44;;;;;;;91.35;52.80;;;13.50;55.40;;;;;;4892193;28;94386;-78
2024/01/17 01:10:10;;;;;;;91.03;53.45;;;13.50;55.30;;;;;;4896507;28;95074;-78
2024/01/17 01:12:37;;;;;;;92.47;53.47;;;13.50;55.20;;;;;;4891416;28;94353;-77
2024/01/17 01:15:04;;;;;;;92.38;53.35;;;13.50;55.30;;;;;;4891500;28;94262;-78
2024/01/17 01:17:30;;;;;;;92.55;53.47;;;13.40;55.20;;;;;;4891102;28;94173;-77
2024/01/17 01:19:56;;;;;;;93.90;53.33;;;13.40;55.30;;;;;;4892185;28;97693;-76
2024/01/17 01:22:22;;;;;;;92.22;53.50;;;13.40;55.30;;;;;;4894433;28;95382;-77
2024/01/17 01:24:48;;;;;;;94.10;53.70;;;13.40;55.30;;;;;;4893031;28;95293;-78
2024/01/17 01:27:13;;;;;;;98.50;53.45;;;13.40;55.20;;;;;;4893815;28;95386;-77
2024/01/17 01:29:39;;;;;;;94.82;53.03;;;13.30;55.30;;;;;;4894902;28;98898;-77
2024/01/17 01:32:05;;;;;;;94.43;52.90;;;13.30;55.30;;;;;;4895811;28;95134;-78
2024/01/17 01:34:30;;;;;;;94.07;53.45;;;13.30;55.30;;;;;;4898667;28;95328;-78
2024/01/17 01:36:56;;;;;;;94.22;53.15;;;13.30;55.30;;;;;;4926225;28;94779;-77
2024/01/17 01:39:22;;;;;;;91.70;53.50;;;13.30;55.20;;;;;;4924317;28;94725;-78
2024/01/17 01:41:47;;;;;;;91.68;52.58;;;13.30;55.20;;;;;;4921014;28;95017;-77
2024/01/17 01:44:14;;;;;;;92.25;52.50;;;13.30;55.30;;;;;;4910399;28;94386;-78
2024/01/17 01:46:44;;;;;;;90.28;52.55;;;13.20;55.20;;;;;;4897872;28;96123;-78
2024/01/17 01:49:09;;;;;;;91.22;53.17;;;13.20;55.20;;;;;;4895841;28;95801;-77
2024/01/17 01:51:35;;;;;;;91.53;53.60;;;13.20;55.20;;;;;;4894129;28;93967;-79
2024/01/17 01:54:03;;;;;;;92.68;53.75;;;13.10;55.20;;;;;;4888395;28;94410;-78
2024/01/17 01:56:32;;;;;;;91.35;53.40;;;13.10;55.20;;;;;;4890823;28;97067;-78
2024/01/17 01:59:00;;;;;;;93.07;53.83;;;13.10;55.20;;;;;;4894633;28;96267;-79
2024/01/17 02:01:28;;;;;;;92.05;53.15;;;13.10;55.20;;;;;;4897379;28;94906;-76
2024/01/17 02:03:56;;;;;;;92.20;53.42;;;13.10;55.20;;;;;;4892902;28;95087;-77
2024/01/17 02:06:25;;;;;;;90.47;52.97;;;13.10;55.30;;;;;;4890440;28;94781;-77
2024/01/17 02:08:51;;;;;;;92.15;53.00;;;13.10;55.30;;;;;;4891661;28;98737;-77
2024/01/17 02:11:18;;;;;;;94.38;53.28;;;13.10;55.20;;;;;;4891952;28;96554;-77
2024/01/17 02:13:44;;;;;;;92.72;53.05;;;13.10;55.30;;;;;;4896651;28;94542;-78
2024/01/17 02:16:10;;;;;;;90.93;52.88;;;13.00;55.30;;;;;;4895869;28;94152;-77
2024/01/17 02:18:36;;;;;;;92.10;53.03;;;13.00;55.40;;;;;;4891258;28;94085;-78
2024/01/17 02:21:03;;;;;;;91.07;52.50;;;13.00;55.30;;;;;;4893507;28;94102;-77
2024/01/17 02:23:29;;;;;;;90.40;52.97;;;13.00;55.40;;;;;;4891985;28;94875;-77
2024/01/17 02:25:56;;;;;;;90.18;53.03;;;13.00;55.40;;;;;;4892289;28;96490;-77
2024/01/17 02:28:23;;;;;;;90.10;52.60;;;13.00;55.40;;;;;;4893417;28;94670;-76
2024/01/17 02:30:49;;;;;;;90.05;53.22;;;13.00;55.40;;;;;;4892258;28;93793;-76
2024/01/17 02:33:15;;;;;;;90.00;53.22;;;12.90;55.40;;;;;;4890425;28;94733;-77
2024/01/17 02:35:42;;;;;;;92.63;53.22;;;12.90;55.40;;;;;;4890443;28;97713;-77
2024/01/17 02:38:07;;;;;;;90.53;52.95;;;12.90;56.00;;;;;;4895764;28;96900;-77
2024/01/17 02:40:33;;;;;;;91.53;53.05;;;12.90;55.40;;;;;;4890629;28;94520;-77
2024/01/17 02:42:59;;;;;;;90.80;53.30;;;12.90;55.40;;;;;;4886503;28;95839;-77
2024/01/17 02:45:25;;;;;;;89.80;52.55;;;12.90;55.40;;;;;;4890343;28;94919;-77
2024/01/17 02:47:50;;;;;;;90.95;52.42;;;12.90;55.40;;;;;;4895571;28;95575;-78
2024/01/17 02:50:16;;;;;;;90.35;52.72;;;12.80;55.40;;;;;;4889377;28;98408;-77
2024/01/17 02:52:42;;;;;;;90.28;52.50;;;12.90;55.40;;;;;;4889360;28;93605;-77
2024/01/17 02:55:10;;;;;;;91.07;52.70;;;12.80;55.30;;;;;;4894111;28;94064;-77
2024/01/17 02:57:35;;;;;;;90.30;53.00;;;12.80;55.40;;;;;;4891682;28;94859;-77
2024/01/17 03:00:01;;;;;;;91.85;52.97;;;12.80;55.40;;;;;;4890383;28;95685;-76
2024/01/17 03:02:27;;;;;;;90.30;52.63;;;12.80;55.40;;;;;;4890706;28;95418;-76
2024/01/17 03:04:52;;;;;;;89.32;52.47;;;12.80;55.50;;;;;;4891365;28;98771;-77
2024/01/17 03:07:18;;;;;;;90.10;52.97;;;12.80;55.50;;;;;;4892706;28;95174;-75
2024/01/17 03:09:44;;;;;;;89.95;52.85;;;12.80;55.50;;;;;;4889583;28;95049;-76
2024/01/17 03:12:10;;;;;;;88.72;52.40;;;12.80;55.40;;;;;;4888716;28;95304;-77
2024/01/17 03:14:36;;;;;;;88.88;52.47;;;12.80;55.40;;;;;;4891929;28;94413;-76
2024/01/17 03:17:02;;;;;;;91.03;53.15;;;12.70;55.40;;;;;;4896850;28;94343;-77
2024/01/17 03:19:28;;;;;;;90.72;53.08;;;12.70;55.40;;;;;;4894518;28;95255;-76
2024/01/17 03:21:54;;;;;;;89.78;52.80;;;12.70;55.50;;;;;;4895289;28;94143;-76
2024/01/17 03:24:19;;;;;;;91.03;53.03;;;12.70;55.40;;;;;;4894432;28;97053;-77
2024/01/17 03:26:45;;;;;;;89.90;52.55;;;12.70;55.40;;;;;;4893487;28;96753;-76
2024/01/17 03:29:11;;;;;;;90.47;52.78;;;12.70;55.40;;;;;;4891858;28;96013;-76
2024/01/17 03:31:37;;;;;;;92.25;52.70;;;12.70;55.40;;;;;;4891608;28;94293;-78
2024/01/17 03:34:03;;;;;;;91.75;52.92;;;12.70;55.40;;;;;;4890137;28;95274;-78
2024/01/17 03:36:29;;;;;;;89.88;52.70;;;12.70;55.50;;;;;;4892145;28;95326;-77
2024/01/17 03:38:55;;;;;;;90.15;52.90;;;12.60;55.40;;;;;;4897529;28;94099;-77
2024/01/17 03:41:21;;;;;;;91.03;52.65;;;12.60;55.40;;;;;;4893900;28;93086;-77
2024/01/17 03:43:47;;;;;;;88.85;52.15;;;12.60;55.40;;;;;;4896166;28;96933;-77
2024/01/17 03:46:13;;;;;;;89.55;52.88;;;12.60;55.50;;;;;;4897358;28;94788;-79
2024/01/17 03:48:39;;;;;;;89.97;52.97;;;12.60;55.40;;;;;;4891500;28;95157;-79
2024/01/17 03:51:05;;;;;;;89.53;52.75;;;12.60;55.40;;;;;;4894923;28;94670;-78
2024/01/17 03:53:31;;;;;;;90.68;52.97;;;12.60;55.40;;;;;;4888364;28;95693;-77
2024/01/17 03:55:57;;;;;;;89.20;52.53;;;12.60;55.40;;;;;;4891205;28;94815;-78
2024/01/17 03:58:22;;;;;;;90.05;52.15;;;12.60;55.40;;;;;;4894888;28;94716;-78
2024/01/17 04:00:48;;;;;;;88.97;52.35;;;12.60;55.50;;;;;;4895775;28;94910;-77
2024/01/17 04:03:14;;;;;;;88.95;52.83;;;12.60;55.50;;;;;;4901061;28;94987;-76
2024/01/17 04:05:43;;;;;;;88.40;52.25;;;12.60;55.50;;;;;;4899325;28;94884;-77
2024/01/17 04:08:09;;;;;;;88.35;52.25;;;12.60;55.40;;;;;;4893292;28;94757;-77
2024/01/17 04:10:35;;;;;;;89.25;52.65;;;12.60;55.50;;;;;;4900655;28;94180;-77
2024/01/17 04:13:00;;;;;;;88.85;52.42;;;12.50;55.50;;;;;;4896752;28;95862;-76
2024/01/17 04:15:26;;;;;;;89.75;52.33;;;12.50;55.60;;;;;;4899844;28;97040;-78
2024/01/17 04:17:52;;;;;;;90.65;52.40;;;12.50;55.50;;;;;;4897906;28;96888;-79
2024/01/17 04:20:19;;;;;;;88.68;52.33;;;12.50;55.50;;;;;;4888838;28;94566;-78
2024/01/17 04:22:45;;;;;;;88.88;52.83;;;12.50;55.50;;;;;;4893066;28;95963;-78
2024/01/17 04:25:10;;;;;;;90.28;52.58;;;12.50;55.60;;;;;;4890814;28;95315;-78
2024/01/17 04:27:37;;;;;;;88.70;52.15;;;12.50;55.50;;;;;;4892413;28;94392;-77
2024/01/17 04:30:04;;;;;;;89.05;52.63;;;12.50;55.60;;;;;;4894218;28;93282;-77
2024/01/17 04:32:32;;;;;;;88.25;52.25;;;12.50;55.50;;;;;;4894495;28;94355;-75
2024/01/17 04:34:58;;;;;;;89.85;52.40;;;12.50;55.50;;;;;;4901078;28;94582;-76
2024/01/17 04:37:24;;;;;;;88.95;52.60;;;12.50;55.60;;;;;;4895694;28;95481;-77
2024/01/17 04:39:49;;;;;;;90.25;52.78;;;12.40;55.50;;;;;;4894446;28;93662;-76
2024/01/17 04:42:15;;;;;;;90.57;52.45;;;12.40;55.60;;;;;;4909055;28;94174;-77
2024/01/17 04:44:41;;;;;;;88.63;52.38;;;12.40;55.50;;;;;;4917863;28;94670;-76
2024/01/17 04:47:06;;;;;;;90.15;52.53;;;12.40;55.40;;;;;;4919649;28;93655;-76
2024/01/17 04:49:32;;;;;;;89.85;52.15;;;12.40;55.40;;;;;;4915065;28;94262;-77
2024/01/17 04:51:58;;;;;;;87.43;51.58;;;12.40;55.50;;;;;;4903633;28;94533;-77
2024/01/17 04:54:24;;;;;;;88.30;51.92;;;12.40;55.50;;;;;;4893621;28;93822;-76
2024/01/17 04:56:50;;;;;;;89.35;52.67;;;12.40;55.50;;;;;;4895163;28;94243;-75
2024/01/17 04:59:19;;;;;;;89.65;52.80;;;12.40;55.40;;;;;;4893197;28;94303;-77
2024/01/17 05:01:45;;;;;;;89.85;52.47;;;12.40;55.50;;;;;;4889669;28;95263;-76
2024/01/17 05:04:10;;;;;;;90.15;52.40;;;12.40;55.50;;;;;;4894713;28;96913;-77
2024/01/17 05:06:36;;;;;;;88.50;52.70;;;12.40;55.60;;;;;;4893504;28;94560;-76
2024/01/17 05:09:07;;;;;;;87.53;51.85;;;12.40;55.70;;;;;;4891623;28;94137;-76
2024/01/17 05:11:32;;;;;;;88.13;52.73;;;12.40;55.60;;;;;;4898557;28;94667;-75
2024/01/17 05:13:58;;;;;;;88.65;52.42;;;12.40;55.60;;;;;;4887771;28;96188;-77
2024/01/17 05:16:24;;;;;;;89.93;52.92;;;12.40;55.60;;;;;;4893376;28;94885;-77
2024/01/17 05:18:49;;;;;;;89.18;52.58;;;12.40;55.60;;;;;;4887317;28;95824;-78
2024/01/17 05:21:15;;;;;;;90.13;52.47;;;12.30;55.50;;;;;;4891279;28;94635;-77
2024/01/17 05:23:41;;;;;;;89.00;52.60;;;12.30;55.60;;;;;;4889457;28;94617;-78
2024/01/17 05:26:07;;;;;;;90.30;52.55;;;12.30;55.50;;;;;;4893034;28;96610;-77
2024/01/17 05:28:33;;;;;;;89.97;52.65;;;12.30;55.60;;;;;;4888280;28;94041;-77
2024/01/17 05:30:58;;;;;;;88.47;52.67;;;12.30;55.60;;;;;;4896888;28;95243;-77
2024/01/17 05:33:24;;;;;;;87.97;52.33;;;12.30;55.40;;;;;;4893537;28;95060;-78
2024/01/17 05:35:50;;;;;;;88.60;52.35;;;12.30;55.30;;;;;;4898948;28;94861;-78
2024/01/17 05:38:15;;;;;;;88.32;52.25;;;12.30;55.40;;;;;;4890530;28;94621;-77
2024/01/17 05:40:41;;;;;;;89.65;52.58;;;12.30;55.30;;;;;;4892142;28;94388;-78
2024/01/17 05:43:06;;;;;;;92.15;52.63;;;12.30;55.40;;;;;;4889254;28;95216;-78
2024/01/17 05:45:32;;;;;;;88.95;52.45;;;12.30;55.50;;;;;;4892318;28;95071;-78
2024/01/17 05:47:58;;;;;;;89.90;52.35;;;12.30;55.40;;;;;;4890668;28;95258;-78
2024/01/17 05:50:24;;;;;;;88.68;52.67;;;12.40;55.40;;;;;;4895714;28;96182;-78
2024/01/17 05:52:49;;;;;;;90.72;52.45;;;12.40;55.40;;;;;;4894020;28;94518;-78
2024/01/17 05:55:15;;;;;;;90.63;52.95;;;12.40;55.40;;;;;;4893089;28;93931;-78
2024/01/17 05:57:41;;;;;;;88.47;52.17;;;12.30;55.40;;;;;;4893092;28;95106;-79
2024/01/17 06:00:12;;;;;;;91.28;52.35;;;12.40;55.50;;;;;;4894409;28;94656;-78
2024/01/17 06:02:39;;;;;;;88.70;52.60;;;12.30;55.30;;;;;;4896996;28;94276;-78
2024/01/17 06:05:05;;;;;;;88.85;52.33;;;12.30;55.40;;;;;;4894065;28;95809;-72
2024/01/17 06:07:31;;;;;;;88.97;52.40;;;12.30;55.70;;;;;;4898196;28;93163;-75
2024/01/17 06:09:57;;;;;;;90.95;52.13;;;12.30;55.70;;;;;;4893345;28;94785;-71
2024/01/17 06:12:23;;;;;;;91.10;52.47;;;12.30;55.70;;;;;;4895690;28;94644;-74
2024/01/17 06:14:49;;;;;;;91.40;52.15;;;12.30;55.80;;;;;;4886766;28;95192;-72
2024/01/17 06:17:15;;;;;;;88.68;52.45;;;12.30;55.90;;;;;;4899150;28;94274;-72
2024/01/17 06:19:41;;;;;;;90.32;52.60;;;12.30;55.90;;;;;;4886472;28;94229;-75
2024/01/17 06:22:08;;;;;;;89.45;52.08;;;12.30;56.00;;;;;;4888963;28;96453;-73
2024/01/17 06:24:34;;;;;;;91.65;52.75;;;12.20;56.10;;;;;;4891812;28;96490;-72
2024/01/17 06:27:00;;;;;;;90.45;52.25;;;12.20;56.00;;;;;;4892867;28;95132;-72
2024/01/17 06:29:26;;;;;;;90.05;52.90;;;12.30;56.10;;;;;;4892361;28;95612;-72
2024/01/17 06:31:53;;;;;;;89.22;52.55;;;12.30;56.20;;;;;;4898486;28;98251;-72
2024/01/17 06:34:19;;;;;;;93.38;52.67;;;12.30;56.20;;;;;;4887758;28;94075;-72
2024/01/17 06:36:44;;;;;;;91.55;52.63;;;12.30;56.20;;;;;;4894132;28;96145;-76
2024/01/17 06:39:10;;;;;;;88.05;52.45;;;12.30;56.50;;;;;;4886161;28;95398;-73
2024/01/17 06:41:36;;;;;;;89.13;52.78;;;12.30;56.30;;;;;;4887825;28;96167;-75
2024/01/17 06:44:03;;;;;;;89.40;52.55;;;12.20;56.50;;;;;;4889822;28;96019;-76
2024/01/17 06:46:28;;;;;;;90.20;52.78;;;12.20;56.60;;;;;;4887904;28;94746;-72
2024/01/17 06:48:54;;;;;;;90.05;51.90;;;12.30;56.40;;;;;;4890748;28;95741;-73
2024/01/17 06:51:20;;;;;;;91.05;52.72;;;12.20;56.40;;;;;;4885052;28;94288;-73
2024/01/17 06:53:45;;;;;;;91.25;52.65;;;12.20;56.40;;;;;;4891189;28;95480;-72
2024/01/17 06:56:11;;;;;;;88.78;52.58;;;12.20;56.30;;;;;;4892430;28;93865;-74
2024/01/17 06:58:37;;;;;;;92.15;52.65;;;12.20;56.30;;;;;;4892827;28;95634;-71
2024/01/17 07:01:03;;;;;;;90.70;52.67;;;12.20;56.30;;;;;;4891720;28;94961;-73
2024/01/17 07:03:28;;;;;;;88.85;52.13;;;12.20;56.30;;;;;;4886846;28;95286;-72
2024/01/17 07:05:54;;;;;;;92.65;52.90;;;12.20;56.00;;;;;;4893240;28;98965;-75
2024/01/17 07:08:20;;;;;;;88.97;52.42;;;12.10;56.00;;;;;;4890580;28;95222;-73
2024/01/17 07:10:46;;;;;;;89.10;52.28;;;12.10;56.00;;;;;;4890000;28;94904;-76
2024/01/17 07:13:14;;;;;;;91.25;53.33;;;12.00;56.00;;;;;;4892454;28;94289;-74
2024/01/17 07:15:40;;;;;;;88.95;52.58;;;12.00;56.20;;;;;;4895327;28;94026;-81
2024/01/17 07:18:06;;;;;;;91.90;53.17;;;12.10;56.40;;;;;;4889683;28;95159;-82
2024/01/17 07:20:31;;;;;;;91.93;52.55;;;12.10;56.10;;;;;;4891510;28;95116;-80
2024/01/17 07:22:57;;;;;;;91.45;53.53;;;12.20;56.40;;;;;;4890083;28;94322;-80
2024/01/17 07:25:23;;;;;;;90.22;53.33;;;12.30;55.50;;;;;;4891908;28;94775;-80
2024/01/17 07:27:49;;;;;;;91.00;53.13;;;12.40;55.20;;;;;;4893092;28;96048;-80
2024/01/17 07:30:15;;;;;;;91.72;53.47;;;12.50;55.10;;;;;;4886010;28;95327;-80
2024/01/17 07:32:41;;;;;;;96.53;53.03;;;12.50;55.00;;;;;;4889730;28;93725;-82
2024/01/17 07:35:07;;;;;;;93.85;53.28;;;12.60;55.20;;;;;;4893658;28;94526;-82
2024/01/17 07:37:35;;;;;;;98.30;56.13;;;12.60;54.50;;;;;;4890458;28;94651;-79
2024/01/17 07:40:02;;;;;;;96.85;56.72;;;12.70;54.50;;;;;;4888926;28;94925;-87
2024/01/17 07:42:27;;;;;;;99.35;57.05;;;12.90;54.60;;;;;;4902451;28;95227;-80
2024/01/17 07:44:54;;;;;;;100.88;57.90;;;13.00;54.40;;;;;;4896463;28;93508;-80
2024/01/17 07:47:20;;;;;;;118.47;74.32;;;13.00;54.00;;;;;;4895137;28;99097;-79
2024/01/17 07:49:46;;;;;;;114.63;70.00;;;13.00;54.00;;;;;;4895786;28;94405;-80
2024/01/17 07:52:11;;;;;;;110.05;67.82;;;13.10;53.90;;;;;;4892986;28;95738;-79
2024/01/17 07:54:38;;;;;;;110.20;66.35;;;13.10;53.70;;;;;;4897988;28;94780;-80
2024/01/17 07:57:04;;;;;;;113.00;64.95;;;13.20;53.50;;;;;;4899413;28;98918;-82
2024/01/17 07:59:30;;;;;;;108.35;63.40;;;13.30;53.60;;;;;;4898497;28;96777;-79
2024/01/17 08:01:56;;;;;;;108.03;63.58;;;13.40;53.40;;;;;;4905600;28;94359;-79
2024/01/17 08:04:22;;;;;;;104.70;62.40;;;13.50;53.10;;;;;;4898220;28;94589;-81
2024/01/17 08:06:48;;;;;;;104.90;61.28;;;13.60;52.80;;;;;;4894712;28;98045;-81
2024/01/17 08:09:26;;;;;;;106.00;61.22;;;13.70;52.80;;;;;;4902064;28;94603;-82
2024/01/17 08:11:53;;;;;;;107.53;60.80;;;13.80;52.60;;;;;;4895103;28;94783;-85
2024/01/17 08:14:20;;;;;;;105.15;60.90;;;13.90;52.50;;;;;;4896194;28;94236;-78
2024/01/17 08:16:46;;;;;;;100.78;60.35;;;13.90;52.20;;;;;;4886342;28;97132;-72
2024/01/17 08:19:12;;;;;;;103.43;59.65;;;14.00;52.10;;;;;;4895934;28;95402;-71
2024/01/17 08:21:38;;;;;;;102.10;59.58;;;14.00;52.10;;;;;;4892946;28;95250;-71
2024/01/17 08:24:05;;;;;;;102.65;59.17;;;14.00;52.10;;;;;;4889588;28;95452;-74
2024/01/17 08:26:32;;;;;;;102.40;58.63;;;14.00;52.10;;;;;;4891843;28;98530;-73
2024/01/17 08:28:57;;;;;;;100.35;58.38;;;14.00;52.00;;;;;;4892069;28;94992;-73
2024/01/17 08:31:23;;;;;;;100.18;57.92;;;14.10;52.10;;;;;;4895593;28;94355;-77
2024/01/17 08:33:51;;;;;;;102.35;57.75;;;14.10;51.70;;;;;;4898425;28;94117;-79
2024/01/17 08:36:16;;;;;;;100.35;57.75;;;14.10;51.70;;;;;;4891265;28;94921;-80
2024/01/17 08:38:43;;;;;;;97.75;57.30;;;14.00;51.60;;;;;;4894991;28;94663;-75
2024/01/17 08:41:09;;;;;;;99.68;57.33;;;14.00;51.80;;;;;;4886584;28;100516;-75
2024/01/17 08:43:35;;;;;;;97.70;57.22;;;14.10;51.90;;;;;;4898832;28;95541;-76
2024/01/17 08:46:02;;;;;;;97.18;56.67;;;14.10;51.90;;;;;;4901288;28;95190;-76
2024/01/17 08:48:28;;;;;;;99.82;56.95;;;14.10;51.80;;;;;;4895259;28;96376;-75
2024/01/17 08:50:54;;;;;;;98.95;56.83;;;14.10;51.70;;;;;;4895993;28;94912;-75
2024/01/17 08:53:20;;;;;;;99.07;56.70;;;14.10;51.70;;;;;;4889030;28;94456;-76
2024/01/17 08:55:47;;;;;;;98.00;57.08;;;14.10;51.60;;;;;;4875880;28;96580;-78
2024/01/17 08:58:12;;;;;;;115.57;67.75;;;14.10;51.90;;;;;;4894301;28;96688;-80
2024/01/17 09:00:42;;;;;;;124.78;75.00;;;14.10;52.70;;;;;;4901874;28;95018;-79
2024/01/17 09:03:08;;;;;;;123.10;74.05;;;14.30;52.40;;;;;;4901537;28;94554;-84
2024/01/17 09:05:35;;;;;;;118.28;71.15;;;14.40;51.70;;;;;;4897249;28;96357;-87
2024/01/17 09:08:03;;;;;;;116.47;70.43;;;14.40;51.30;;;;;;4906471;28;96462;-76
2024/01/17 09:10:29;;;;;;;117.82;69.15;;;14.50;51.50;;;;;;4895696;28;95634;-79
2024/01/17 09:12:58;;;;;;;113.72;67.63;;;14.60;51.20;;;;;;4892667;28;95173;-81
2024/01/17 09:15:24;;;;;;;113.53;66.55;;;14.70;51.00;;;;;;4895052;28;95544;-83
2024/01/17 09:17:49;;;;;;;112.22;65.18;;;14.80;51.10;;;;;;4887363;28;97568;-80
2024/01/17 09:20:15;;;;;;;111.90;64.68;;;14.80;51.40;;;;;;4895307;28;94717;-79
2024/01/17 09:22:41;;;;;;;109.25;64.55;;;14.80;51.10;;;;;;4895184;28;94893;-80
2024/01/17 09:25:08;;;;;;;117.75;67.20;;;14.80;51.20;;;;;;4893187;28;95402;-82
2024/01/17 09:27:34;;;;;;;120.10;71.85;;;14.80;51.20;;;;;;4897792;28;94868;-81
2024/01/17 09:30:00;;;;;;;119.82;72.25;;;14.90;51.00;;;;;;4898057;28;96472;-77
2024/01/17 09:32:26;;;;;;;116.07;70.57;;;14.90;50.90;;;;;;4895694;28;94580;-78
2024/01/17 09:34:53;;;;;;;114.75;68.20;;;14.90;50.70;;;;;;4896533;28;95130;-84
2024/01/17 09:37:19;;;;;;;112.90;67.53;;;15.00;50.80;;;;;;4897229;28;95074;-82
2024/01/17 09:39:45;;;;;;;114.18;67.38;;;15.10;50.70;;;;;;4897519;28;95260;-80
2024/01/17 09:42:12;;;;;;;111.10;66.13;;;15.10;50.60;;;;;;4893134;28;94907;-80
2024/01/17 09:44:38;;;;;;;111.20;64.93;;;15.10;50.40;;;;;;4891690;28;95157;-82
2024/01/17 09:47:05;;;;;;;110.10;64.60;;;15.20;50.40;;;;;;4893445;28;95080;-85
2024/01/17 09:49:33;;;;;;;108.13;63.00;;;15.20;50.70;;;;;;4896069;28;94652;-79
2024/01/17 09:52:04;;;;;;;109.45;63.40;;;15.20;50.70;;;;;;4895145;28;94740;-84
2024/01/17 09:54:35;;;;;;;107.57;62.67;;;15.30;50.50;;;;;;4896748;28;97023;-76
2024/01/17 09:57:03;;;;;;;108.70;63.58;;;15.20;50.00;;;;;;4898590;28;95549;-84
2024/01/17 09:59:33;;;;;;;107.18;61.78;;;15.30;50.10;;;;;;4895661;28;96067;-78
2024/01/17 10:02:00;;;;;;;108.93;62.47;;;15.30;50.00;;;;;;4890801;28;95116;-78
2024/01/17 10:04:26;;;;;;;106.13;61.65;;;15.30;50.40;;;;;;4894861;28;95077;-79
2024/01/17 10:06:55;;;;;;;105.65;60.25;;;15.40;50.40;;;;;;4897782;28;97543;-76
2024/01/17 10:09:24;;;;;;;104.63;60.13;;;15.40;49.90;;;;;;4884205;28;94824;-77
2024/01/17 10:11:51;;;;;;;104.68;60.72;;;15.50;50.00;;;;;;4888122;28;94288;-78
2024/01/17 10:14:17;;;;;;;105.65;59.92;;;15.50;50.00;;;;;;4889802;28;95144;-76
2024/01/17 10:16:42;;;;;;;102.95;59.60;;;15.60;49.90;;;;;;4889653;28;95431;-78
2024/01/17 10:19:08;;;;;;;106.13;59.60;;;15.50;49.90;;;;;;4888719;28;96029;-81
2024/01/17 10:21:35;;;;;;;103.53;59.83;;;15.60;50.00;;;;;;4886843;28;94555;-82
2024/01/17 10:24:01;;;;;;;104.93;59.50;;;15.60;50.00;;;;;;4889906;28;95723;-79
2024/01/17 10:26:27;;;;;;;102.13;58.97;;;15.60;50.00;;;;;;4897356;28;94743;-84
2024/01/17 10:28:52;;;;;;;102.13;59.10;;;15.60;49.90;;;;;;4897479;28;98063;-77
2024/01/17 10:31:21;;;;;;;102.05;58.33;;;15.60;49.80;;;;;;4909773;28;94239;-82
2024/01/17 10:33:51;;;;;;;101.97;58.38;;;15.70;49.70;;;;;;4906915;28;97823;-82
2024/01/17 10:36:16;;;;;;;102.00;58.00;;;15.70;49.50;;;;;;4892214;28;97762;-81
2024/01/17 10:38:43;;;;;;;100.68;57.47;;;15.70;49.50;;;;;;4892617;28;94442;-77
2024/01/17 10:41:11;;;;;;;102.13;58.08;;;15.80;49.80;;;;;;4891309;28;95449;-78
2024/01/17 10:43:55;;;;;;;101.95;57.90;;;15.70;49.70;;;;;;4890249;28;95524;-77
2024/01/17 10:46:22;;;;;;;101.97;57.80;;;15.80;49.80;;;;;;4887475;28;95613;-80
2024/01/17 10:48:48;;;;;;;101.85;58.22;;;15.70;50.00;;;;;;4891211;28;94791;-79
2024/01/17 10:51:20;;;;;;;101.75;56.97;;;15.80;50.00;;;;;;4896311;28;95289;-85
2024/01/17 10:53:52;;;;;;;101.38;57.35;;;15.80;50.20;;;;;;4888394;28;98737;-77
2024/01/17 10:56:21;;;;;;;;;;;15.80;50.10;;;;;;4899703;28;94736;-80
2024/01/17 10:58:52;;;;;;;99.18;56.42;;;15.80;50.30;;;;;;4903883;28;95127;-81
2024/01/17 11:01:38;;;;;;;100.70;56.97;;;15.80;50.30;;;;;;4885976;28;93983;-80
2024/01/17 11:04:30;;;;;;;103.90;57.70;;;15.70;49.70;;;;;;4896538;28;95920;-77
2024/01/17 11:06:58;;;;;;;101.63;57.90;;;15.70;49.20;;;;;;4887093;28;96390;-76
2024/01/17 11:09:26;;;;;;;100.50;57.40;;;15.80;49.20;;;;;;4896999;28;95653;-86
2024/01/17 11:11:52;;;;;;;102.65;57.55;;;15.80;49.20;;;;;;4893461;28;94909;-75
2024/01/17 11:14:20;;;;;;;102.22;57.67;;;15.90;49.00;;;;;;4898426;28;94570;-79
2024/01/17 11:16:48;;;;;;;102.50;57.40;;;16.00;48.80;;;;;;4893763;28;94615;-79
2024/01/17 11:19:15;;;;;;;100.60;57.10;;;16.00;48.80;;;;;;4900683;28;94297;-79
2024/01/17 11:21:42;;;;;;;100.82;56.53;;;16.00;48.50;;;;;;4893230;28;95684;-80
2024/01/17 11:24:47;;;;;;;99.65;56.40;;;16.10;48.60;;;;;;4898389;28;98577;-79
2024/01/17 11:30:07;;;;;;;98.88;56.53;;;16.10;48.60;;;;;;5381326;23;95974;-87
2024/01/17 11:32:51;;;;;;;99.55;56.05;;;16.00;48.80;;;;;;4914258;28;94245;-87
2024/01/17 11:35:43;;;;;;;100.18;56.53;;;16.10;49.20;;;;;;4909929;28;98612;-86
2024/01/17 11:38:13;;;;;;;99.65;56.00;;;16.10;49.10;;;;;;4921700;28;96482;-85
2024/01/17 11:40:40;;;;;;;100.50;56.65;;;16.10;49.60;;;;;;4922212;28;94543;-86
2024/01/17 11:43:08;;;;;;;100.60;55.58;;;16.10;49.10;;;;;;4929065;23;97048;-41
2024/01/17 11:45:34;;;;;;;99.95;55.38;;;16.10;49.30;;;;;;4903462;28;96144;-41
2024/01/17 11:48:29;;;;;;;97.43;54.58;;;16.10;49.20;;;;;;4906628;23;95924;-70
2024/01/17 11:51:03;;;;;;;100.78;55.50;;;16.10;49.30;;;;;;4881208;28;94815;-70
2024/01/17 11:53:35;;;;;;;98.97;55.53;;;16.10;49.10;;;;;;4872935;28;98188;-71
2024/01/17 11:56:03;;;;;;;97.93;54.95;;;16.10;49.20;;;;;;4862770;28;96597;-69
2024/01/17 11:58:51;;;;;;;106.50;55.25;;;16.10;49.20;;;;;;4906754;23;99573;-70
2024/01/17 12:01:26;;;;;;;102.10;55.65;;;16.00;47.70;;;;;;4905369;23;96647;-68
2024/01/17 12:03:52;;;;;;;108.28;55.58;;;15.90;48.70;;;;;;4894733;28;94947;-69
2024/01/17 12:06:22;;;;;;;102.93;55.53;;;16.00;48.70;;;;;;4898540;28;96033;-69
2024/01/17 12:08:52;;;;;;;100.53;55.28;;;16.00;48.60;;;;;;4899987;28;98595;-69
2024/01/17 12:11:18;;;;;;;101.20;54.95;;;16.00;48.60;;;;;;4901251;28;94887;-70
2024/01/17 12:13:44;;;;;;;100.70;55.13;;;16.00;48.70;;;;;;4906394;28;98531;-68
2024/01/17 12:16:11;;;;;;;102.03;54.47;;;16.00;48.70;;;;;;4899592;28;95265;-69
2024/01/17 12:18:37;;;;;;;108.28;55.80;;;16.10;48.60;;;;;;4926104;23;93835;-88
2024/01/17 12:21:04;;;;;;;100.45;55.80;;;16.10;48.50;;;;;;4920710;28;94791;-89
2024/01/17 12:23:31;;;;;;;101.90;54.95;;;16.00;48.60;;;;;;4920874;28;94619;-89
2024/01/17 12:25:58;;;;;;;100.22;55.90;;;16.10;48.50;;;;;;4913363;28;95762;-86